Charles Prince Airport


Codes: FVCP/
Name: Charles Prince Airport
City: Harare
Country: Zimbabwe
Elevation: 4845 ft.
Wikipedia:

Photos at Charles Prince Airport


   Photos courtesy of SpottingLog. You can add your own sightings and photos by signing up for a free trial today.



No photos found.

Weather at Charles Prince Airport


Time (UTC)DescriptionTempratureWindCloud coverageVisibilityPressureHumidity
16-Jun-2024 12:00Few Clouds19°C7 mph, NE21%10000m1020hPa46%
16-Jun-2024 15:00Broken Clouds19°C2 mph, NE64%10000m1020hPa43%
16-Jun-2024 18:00Broken Clouds15°C7 mph, E79%10000m1022hPa49%
16-Jun-2024 21:00Clear Sky12°C7 mph, E5%10000m1023hPa65%
17-Jun-2024 00:00Clear Sky10°C4 mph, NE3%10000m1023hPa78%
17-Jun-2024 03:00Scattered Clouds11°C4 mph, E47%10000m1023hPa74%
17-Jun-2024 06:00Scattered Clouds13°C7 mph, E29%10000m1024hPa63%
17-Jun-2024 09:00Clear Sky19°C7 mph, E0%10000m1022hPa38%
17-Jun-2024 12:00Clear Sky22°C4 mph, E0%10000m1018hPa27%
17-Jun-2024 15:00Clear Sky20°C7 mph, NE2%10000m1018hPa31%
17-Jun-2024 18:00Clear Sky14°C7 mph, NE5%10000m1021hPa52%
17-Jun-2024 21:00Clear Sky11°C7 mph, NE6%10000m1022hPa58%
18-Jun-2024 00:00Clear Sky9°C7 mph, NE7%10000m1022hPa72%
18-Jun-2024 03:00Broken Clouds8°C4 mph, NE78%10000m1022hPa81%
18-Jun-2024 06:00Broken Clouds13°C4 mph, NE80%10000m1022hPa61%
18-Jun-2024 09:00Few Clouds21°C2 mph, NE19%10000m1021hPa34%
18-Jun-2024 12:00Few Clouds23°C2 mph, E11%10000m1017hPa25%
18-Jun-2024 15:00Clear Sky20°C2 mph, E1%10000m1017hPa27%
18-Jun-2024 18:00Clear Sky15°C2 mph, N3%10000m1019hPa42%
18-Jun-2024 21:00Clear Sky12°C4 mph, NE5%10000m1021hPa48%
19-Jun-2024 00:00Clear Sky11°C4 mph, NE3%10000m1020hPa53%
19-Jun-2024 03:00Clear Sky10°C4 mph, NE0%10000m1021hPa57%
19-Jun-2024 06:00Clear Sky15°C4 mph, NE0%10000m1021hPa42%
19-Jun-2024 09:00Clear Sky23°C0 mph, SE0%10000m1019hPa25%
19-Jun-2024 12:00Clear Sky25°C2 mph, SE0%10000m1015hPa19%
19-Jun-2024 15:00Clear Sky22°C2 mph, NE0%10000m1015hPa23%
19-Jun-2024 18:00Clear Sky16°C2 mph, NE0%10000m1019hPa34%
19-Jun-2024 21:00Clear Sky14°C4 mph, E0%10000m1021hPa39%
20-Jun-2024 00:00Clear Sky13°C7 mph, NE0%10000m1020hPa44%
20-Jun-2024 03:00Clear Sky12°C7 mph, E0%10000m1021hPa48%
20-Jun-2024 06:00Clear Sky16°C7 mph, E0%10000m1023hPa42%
20-Jun-2024 09:00Clear Sky23°C7 mph, E2%10000m1021hPa25%
20-Jun-2024 12:00Clear Sky25°C7 mph, E1%10000m1018hPa19%
20-Jun-2024 15:00Clear Sky22°C7 mph, NE0%10000m1018hPa23%
20-Jun-2024 18:00Clear Sky16°C7 mph, E0%10000m1022hPa38%
20-Jun-2024 21:00Clear Sky14°C11 mph, NE0%10000m1023hPa44%
21-Jun-2024 00:00Clear Sky12°C7 mph, E0%10000m1023hPa55%
21-Jun-2024 03:00Clear Sky11°C4 mph, E0%10000m1023hPa58%
21-Jun-2024 06:00Clear Sky15°C4 mph, E0%10000m1024hPa44%
21-Jun-2024 09:00Clear Sky23°C4 mph, E0%10000m1022hPa23%